sensor_id;sensor_type;location;lat;lon;timestamp;temperature;humidity
60287;DHT22;46141;52.382;5.270;2022-12-07T00:01:32;20.00;64.20
60287;DHT22;46141;52.382;5.270;2022-12-07T00:04:00;20.00;64.20
60287;DHT22;46141;52.382;5.270;2022-12-07T00:06:31;20.00;64.20
60287;DHT22;46141;52.382;5.270;2022-12-07T00:08:57;20.00;64.30
60287;DHT22;46141;52.382;5.270;2022-12-07T00:11:23;20.00;64.30
60287;DHT22;46141;52.382;5.270;2022-12-07T00:13:54;20.00;64.30
60287;DHT22;46141;52.382;5.270;2022-12-07T00:16:23;19.90;64.30
60287;DHT22;46141;52.382;5.270;2022-12-07T00:18:49;19.90;64.30
60287;DHT22;46141;52.382;5.270;2022-12-07T00:21:21;19.90;64.30
60287;DHT22;46141;52.382;5.270;2022-12-07T00:23:49;19.90;64.30
60287;DHT22;46141;52.382;5.270;2022-12-07T00:26:21;19.80;64.30
60287;DHT22;46141;52.382;5.270;2022-12-07T00:28:52;19.80;64.30
60287;DHT22;46141;52.382;5.270;2022-12-07T00:31:21;19.80;64.30
60287;DHT22;46141;52.382;5.270;2022-12-07T00:33:47;19.80;64.30
60287;DHT22;46141;52.382;5.270;2022-12-07T00:36:18;19.80;64.20
60287;DHT22;46141;52.382;5.270;2022-12-07T00:38:44;19.80;64.40
60287;DHT22;46141;52.382;5.270;2022-12-07T00:41:13;19.80;64.40
60287;DHT22;46141;52.382;5.270;2022-12-07T00:43:40;19.80;64.40
60287;DHT22;46141;52.382;5.270;2022-12-07T00:46:06;19.80;64.40
60287;DHT22;46141;52.382;5.270;2022-12-07T00:48:32;19.80;64.40
60287;DHT22;46141;52.382;5.270;2022-12-07T00:50:58;19.70;64.40
60287;DHT22;46141;52.382;5.270;2022-12-07T00:53:24;19.70;64.50
60287;DHT22;46141;52.382;5.270;2022-12-07T00:55:50;19.70;64.40
60287;DHT22;46141;52.382;5.270;2022-12-07T00:58:16;19.70;64.50
60287;DHT22;46141;52.382;5.270;2022-12-07T01:00:43;19.70;64.40
60287;DHT22;46141;52.382;5.270;2022-12-07T01:03:11;19.70;64.50
60287;DHT22;46141;52.382;5.270;2022-12-07T01:05:38;19.70;64.60
60287;DHT22;46141;52.382;5.270;2022-12-07T01:08:04;19.60;64.60
60287;DHT22;46141;52.382;5.270;2022-12-07T01:10:30;19.60;64.50
60287;DHT22;46141;52.382;5.270;2022-12-07T01:12:57;19.60;64.50
60287;DHT22;46141;52.382;5.270;2022-12-07T01:15:24;19.60;64.60
60287;DHT22;46141;52.382;5.270;2022-12-07T01:17:50;19.50;64.70
60287;DHT22;46141;52.382;5.270;2022-12-07T01:20:15;19.50;64.70
60287;DHT22;46141;52.382;5.270;2022-12-07T01:22:42;19.50;64.60
60287;DHT22;46141;52.382;5.270;2022-12-07T01:25:10;19.50;64.60
60287;DHT22;46141;52.382;5.270;2022-12-07T01:27:37;19.50;64.70
60287;DHT22;46141;52.382;5.270;2022-12-07T01:30:06;19.50;64.70
60287;DHT22;46141;52.382;5.270;2022-12-07T01:32:32;19.50;64.70
60287;DHT22;46141;52.382;5.270;2022-12-07T01:34:58;19.50;64.80
60287;DHT22;46141;52.382;5.270;2022-12-07T01:37:24;19.40;64.70
60287;DHT22;46141;52.382;5.270;2022-12-07T01:39:51;19.40;64.70
60287;DHT22;46141;52.382;5.270;2022-12-07T01:42:18;19.40;64.70
60287;DHT22;46141;52.382;5.270;2022-12-07T01:47:55;19.40;64.70
60287;DHT22;46141;52.382;5.270;2022-12-07T01:50:25;19.30;64.70
60287;DHT22;46141;52.382;5.270;2022-12-07T01:52:55;19.30;64.70
60287;DHT22;46141;52.382;5.270;2022-12-07T01:55:22;19.40;64.70
60287;DHT22;46141;52.382;5.270;2022-12-07T01:57:52;19.30;64.60
60287;DHT22;46141;52.382;5.270;2022-12-07T02:00:19;19.30;64.70
60287;DHT22;46141;52.382;5.270;2022-12-07T02:03:09;19.30;64.70
60287;DHT22;46141;52.382;5.270;2022-12-07T02:05:38;19.30;64.70
60287;DHT22;46141;52.382;5.270;2022-12-07T02:08:06;19.30;64.70
60287;DHT22;46141;52.382;5.270;2022-12-07T02:10:32;19.20;64.70
60287;DHT22;46141;52.382;5.270;2022-12-07T02:13:07;19.20;64.70
60287;DHT22;46141;52.382;5.270;2022-12-07T02:16:06;19.20;64.70
60287;DHT22;46141;52.382;5.270;2022-12-07T02:18:59;19.20;64.70
60287;DHT22;46141;52.382;5.270;2022-12-07T02:30:16;19.10;64.90
60287;DHT22;46141;52.382;5.270;2022-12-07T02:32:56;19.10;64.90
60287;DHT22;46141;52.382;5.270;2022-12-07T02:35:44;19.10;64.90
60287;DHT22;46141;52.382;5.270;2022-12-07T02:39:03;19.00;64.90
60287;DHT22;46141;52.382;5.270;2022-12-07T02:41:45;19.00;64.80
60287;DHT22;46141;52.382;5.270;2022-12-07T02:44:19;19.00;64.80
60287;DHT22;46141;52.382;5.270;2022-12-07T02:47:09;19.00;64.90
60287;DHT22;46141;52.382;5.270;2022-12-07T02:49:39;18.90;64.90
60287;DHT22;46141;52.382;5.270;2022-12-07T02:52:05;18.90;64.90
60287;DHT22;46141;52.382;5.270;2022-12-07T02:54:31;18.90;65.10
60287;DHT22;46141;52.382;5.270;2022-12-07T03:00:03;18.90;65.00
60287;DHT22;46141;52.382;5.270;2022-12-07T03:02:48;18.90;64.90
60287;DHT22;46141;52.382;5.270;2022-12-07T03:08:12;18.90;64.90
60287;DHT22;46141;52.382;5.270;2022-12-07T03:10:59;18.90;65.00
60287;DHT22;46141;52.382;5.270;2022-12-07T03:16:35;18.80;64.90
60287;DHT22;46141;52.382;5.270;2022-12-07T03:19:08;18.80;64.90
60287;DHT22;46141;52.382;5.270;2022-12-07T03:21:40;18.80;64.90
60287;DHT22;46141;52.382;5.270;2022-12-07T03:24:15;18.70;64.80
60287;DHT22;46141;52.382;5.270;2022-12-07T03:26:49;18.80;64.90
60287;DHT22;46141;52.382;5.270;2022-12-07T03:29:30;18.70;64.90
60287;DHT22;46141;52.382;5.270;2022-12-07T03:38:08;18.70;64.70
60287;DHT22;46141;52.382;5.270;2022-12-07T03:40:44;18.60;64.70
60287;DHT22;46141;52.382;5.270;2022-12-07T03:43:10;18.70;64.70
60287;DHT22;46141;52.382;5.270;2022-12-07T03:45:43;18.70;64.70
60287;DHT22;46141;52.382;5.270;2022-12-07T03:48:22;18.60;64.70
60287;DHT22;46141;52.382;5.270;2022-12-07T03:51:13;18.60;64.70
60287;DHT22;46141;52.382;5.270;2022-12-07T03:53:50;18.60;64.70
60287;DHT22;46141;52.382;5.270;2022-12-07T03:56:19;18.60;64.70
60287;DHT22;46141;52.382;5.270;2022-12-07T03:58:46;18.50;64.70
60287;DHT22;46141;52.382;5.270;2022-12-07T04:01:13;18.60;64.70
60287;DHT22;46141;52.382;5.270;2022-12-07T04:03:39;18.50;64.60
60287;DHT22;46141;52.382;5.270;2022-12-07T04:06:05;18.50;64.60
60287;DHT22;46141;52.382;5.270;2022-12-07T04:08:30;18.50;64.60
60287;DHT22;46141;52.382;5.270;2022-12-07T04:10:57;18.50;64.70
60287;DHT22;46141;52.382;5.270;2022-12-07T04:13:22;18.40;64.60
60287;DHT22;46141;52.382;5.270;2022-12-07T04:15:48;18.50;64.50
60287;DHT22;46141;52.382;5.270;2022-12-07T04:18:14;18.40;64.50
60287;DHT22;46141;52.382;5.270;2022-12-07T04:20:39;18.40;64.50
60287;DHT22;46141;52.382;5.270;2022-12-07T04:23:05;18.40;65.10
60287;DHT22;46141;52.382;5.270;2022-12-07T04:25:31;18.40;64.50
60287;DHT22;46141;52.382;5.270;2022-12-07T04:27:56;18.40;64.50
60287;DHT22;46141;52.382;5.270;2022-12-07T04:30:22;18.40;64.50
60287;DHT22;46141;52.382;5.270;2022-12-07T04:32:47;18.30;64.50
60287;DHT22;46141;52.382;5.270;2022-12-07T04:35:13;18.30;64.50
60287;DHT22;46141;52.382;5.270;2022-12-07T04:37:39;18.40;64.50
60287;DHT22;46141;52.382;5.270;2022-12-07T04:40:10;18.30;64.50
60287;DHT22;46141;52.382;5.270;2022-12-07T04:42:37;18.30;64.50
60287;DHT22;46141;52.382;5.270;2022-12-07T04:45:03;18.30;64.40
60287;DHT22;46141;52.382;5.270;2022-12-07T04:47:35;18.30;64.40
60287;DHT22;46141;52.382;5.270;2022-12-07T04:50:01;18.30;64.50
60287;DHT22;46141;52.382;5.270;2022-12-07T04:52:26;18.30;64.40
60287;DHT22;46141;52.382;5.270;2022-12-07T04:54:52;18.30;64.50
60287;DHT22;46141;52.382;5.270;2022-12-07T04:57:18;18.20;64.40
60287;DHT22;46141;52.382;5.270;2022-12-07T04:59:44;18.20;64.40
60287;DHT22;46141;52.382;5.270;2022-12-07T05:02:09;18.20;64.40
60287;DHT22;46141;52.382;5.270;2022-12-07T05:04:35;18.20;64.50
60287;DHT22;46141;52.382;5.270;2022-12-07T05:07:00;18.20;64.50
60287;DHT22;46141;52.382;5.270;2022-12-07T05:09:26;18.20;64.50
60287;DHT22;46141;52.382;5.270;2022-12-07T05:11:52;18.20;64.40
60287;DHT22;46141;52.382;5.270;2022-12-07T05:14:20;18.10;64.50
60287;DHT22;46141;52.382;5.270;2022-12-07T05:16:50;18.10;64.40
60287;DHT22;46141;52.382;5.270;2022-12-07T05:19:17;18.10;64.40
60287;DHT22;46141;52.382;5.270;2022-12-07T05:21:44;18.10;64.40
60287;DHT22;46141;52.382;5.270;2022-12-07T05:24:12;18.10;64.40
60287;DHT22;46141;52.382;5.270;2022-12-07T05:26:39;18.10;64.40
60287;DHT22;46141;52.382;5.270;2022-12-07T05:29:05;18.10;65.00
60287;DHT22;46141;52.382;5.270;2022-12-07T05:31:31;18.10;64.30
60287;DHT22;46141;52.382;5.270;2022-12-07T05:33:57;18.00;64.40
60287;DHT22;46141;52.382;5.270;2022-12-07T05:36:23;18.00;64.30
60287;DHT22;46141;52.382;5.270;2022-12-07T05:38:48;18.00;64.30
60287;DHT22;46141;52.382;5.270;2022-12-07T05:41:17;18.00;64.30
60287;DHT22;46141;52.382;5.270;2022-12-07T05:44:02;18.00;64.20
60287;DHT22;46141;52.382;5.270;2022-12-07T05:46:28;18.00;64.20
60287;DHT22;46141;52.382;5.270;2022-12-07T05:48:54;18.00;64.30
60287;DHT22;46141;52.382;5.270;2022-12-07T05:51:20;18.00;63.90
60287;DHT22;46141;52.382;5.270;2022-12-07T05:53:45;18.00;64.30
60287;DHT22;46141;52.382;5.270;2022-12-07T05:56:11;18.00;64.20
60287;DHT22;46141;52.382;5.270;2022-12-07T05:58:37;18.00;64.30
60287;DHT22;46141;52.382;5.270;2022-12-07T06:01:22;17.90;64.20
60287;DHT22;46141;52.382;5.270;2022-12-07T06:03:47;17.90;64.20
60287;DHT22;46141;52.382;5.270;2022-12-07T06:06:13;17.90;64.30
60287;DHT22;46141;52.382;5.270;2022-12-07T06:08:39;17.90;64.30
60287;DHT22;46141;52.382;5.270;2022-12-07T06:11:07;17.90;64.30
60287;DHT22;46141;52.382;5.270;2022-12-07T06:13:51;17.90;64.20
60287;DHT22;46141;52.382;5.270;2022-12-07T06:16:17;17.90;64.20
60287;DHT22;46141;52.382;5.270;2022-12-07T06:18:43;17.90;64.20
60287;DHT22;46141;52.382;5.270;2022-12-07T06:21:09;17.90;64.20
60287;DHT22;46141;52.382;5.270;2022-12-07T06:23:34;17.90;64.20
60287;DHT22;46141;52.382;5.270;2022-12-07T06:26:00;17.90;64.20
60287;DHT22;46141;52.382;5.270;2022-12-07T06:28:26;17.80;64.20
60287;DHT22;46141;52.382;5.270;2022-12-07T06:30:58;17.80;63.60
60287;DHT22;46141;52.382;5.270;2022-12-07T06:33:24;17.80;64.20
60287;DHT22;46141;52.382;5.270;2022-12-07T06:35:50;17.80;64.20
60287;DHT22;46141;52.382;5.270;2022-12-07T06:38:16;17.80;64.30
60287;DHT22;46141;52.382;5.270;2022-12-07T06:40:42;17.80;64.20
60287;DHT22;46141;52.382;5.270;2022-12-07T06:43:07;17.80;64.10
60287;DHT22;46141;52.382;5.270;2022-12-07T06:45:33;17.70;64.10
60287;DHT22;46141;52.382;5.270;2022-12-07T06:47:59;17.70;64.10
60287;DHT22;46141;52.382;5.270;2022-12-07T06:50:24;17.70;64.10
60287;DHT22;46141;52.382;5.270;2022-12-07T06:52:51;17.70;64.00
60287;DHT22;46141;52.382;5.270;2022-12-07T06:55:17;17.70;63.80
60287;DHT22;46141;52.382;5.270;2022-12-07T06:57:43;17.70;63.90
60287;DHT22;46141;52.382;5.270;2022-12-07T07:00:09;17.70;64.20
60287;DHT22;46141;52.382;5.270;2022-12-07T07:02:35;17.70;64.00
60287;DHT22;46141;52.382;5.270;2022-12-07T07:05:01;17.70;64.10
60287;DHT22;46141;52.382;5.270;2022-12-07T07:07:27;17.60;64.10
60287;DHT22;46141;52.382;5.270;2022-12-07T07:09:53;17.60;64.20
60287;DHT22;46141;52.382;5.270;2022-12-07T07:12:18;17.60;64.20
60287;DHT22;46141;52.382;5.270;2022-12-07T07:14:44;17.60;64.10
60287;DHT22;46141;52.382;5.270;2022-12-07T07:17:09;17.60;64.30
60287;DHT22;46141;52.382;5.270;2022-12-07T07:19:35;17.50;64.30
60287;DHT22;46141;52.382;5.270;2022-12-07T07:22:03;17.50;64.30
60287;DHT22;46141;52.382;5.270;2022-12-07T07:24:28;17.50;64.00
60287;DHT22;46141;52.382;5.270;2022-12-07T07:26:54;17.60;64.30
60287;DHT22;46141;52.382;5.270;2022-12-07T07:29:20;17.50;64.30
60287;DHT22;46141;52.382;5.270;2022-12-07T07:31:46;17.50;64.30
60287;DHT22;46141;52.382;5.270;2022-12-07T07:34:11;17.50;64.40
60287;DHT22;46141;52.382;5.270;2022-12-07T07:36:37;17.50;64.30
60287;DHT22;46141;52.382;5.270;2022-12-07T07:39:03;17.50;64.40
60287;DHT22;46141;52.382;5.270;2022-12-07T07:41:30;17.50;64.30
60287;DHT22;46141;52.382;5.270;2022-12-07T07:43:56;17.50;64.40
60287;DHT22;46141;52.382;5.270;2022-12-07T07:46:21;17.50;64.40
60287;DHT22;46141;52.382;5.270;2022-12-07T07:48:48;17.50;64.60
60287;DHT22;46141;52.382;5.270;2022-12-07T07:51:14;17.50;64.60
60287;DHT22;46141;52.382;5.270;2022-12-07T07:53:40;17.50;64.60
60287;DHT22;46141;52.382;5.270;2022-12-07T07:56:05;17.50;64.60
60287;DHT22;46141;52.382;5.270;2022-12-07T07:58:31;17.50;64.50
60287;DHT22;46141;52.382;5.270;2022-12-07T08:00:57;17.50;64.30
60287;DHT22;46141;52.382;5.270;2022-12-07T08:03:28;17.50;64.40
60287;DHT22;46141;52.382;5.270;2022-12-07T08:05:54;17.50;64.60
60287;DHT22;46141;52.382;5.270;2022-12-07T08:08:20;17.50;64.70
60287;DHT22;46141;52.382;5.270;2022-12-07T08:10:46;17.60;64.50
60287;DHT22;46141;52.382;5.270;2022-12-07T08:13:11;17.60;64.40
60287;DHT22;46141;52.382;5.270;2022-12-07T08:15:41;17.60;64.30
60287;DHT22;46141;52.382;5.270;2022-12-07T08:18:07;17.70;64.30
60287;DHT22;46141;52.382;5.270;2022-12-07T08:20:34;17.70;64.40
60287;DHT22;46141;52.382;5.270;2022-12-07T08:23:01;17.80;64.40
60287;DHT22;46141;52.382;5.270;2022-12-07T08:25:27;17.80;64.40
60287;DHT22;46141;52.382;5.270;2022-12-07T08:27:54;17.90;64.50
60287;DHT22;46141;52.382;5.270;2022-12-07T08:30:20;17.90;64.50
60287;DHT22;46141;52.382;5.270;2022-12-07T08:32:48;18.00;64.50
60287;DHT22;46141;52.382;5.270;2022-12-07T08:35:14;18.00;64.50
60287;DHT22;46141;52.382;5.270;2022-12-07T08:37:40;18.10;64.50
60287;DHT22;46141;52.382;5.270;2022-12-07T08:40:08;18.10;64.50
60287;DHT22;46141;52.382;5.270;2022-12-07T08:42:34;18.10;64.50
60287;DHT22;46141;52.382;5.270;2022-12-07T08:45:07;18.20;64.50
60287;DHT22;46141;52.382;5.270;2022-12-07T08:47:42;18.20;64.50
60287;DHT22;46141;52.382;5.270;2022-12-07T08:50:11;18.30;65.00
60287;DHT22;46141;52.382;5.270;2022-12-07T08:52:37;18.30;65.20
60287;DHT22;46141;52.382;5.270;2022-12-07T08:55:06;18.40;65.50
60287;DHT22;46141;52.382;5.270;2022-12-07T08:57:34;18.40;65.30
60287;DHT22;46141;52.382;5.270;2022-12-07T09:00:00;18.50;65.60
60287;DHT22;46141;52.382;5.270;2022-12-07T09:02:26;18.50;65.70
60287;DHT22;46141;52.382;5.270;2022-12-07T09:04:52;18.50;65.50
60287;DHT22;46141;52.382;5.270;2022-12-07T09:07:17;18.60;65.70
60287;DHT22;46141;52.382;5.270;2022-12-07T09:09:43;18.60;65.70
60287;DHT22;46141;52.382;5.270;2022-12-07T09:12:09;18.70;65.60
60287;DHT22;46141;52.382;5.270;2022-12-07T09:14:36;18.70;65.90
60287;DHT22;46141;52.382;5.270;2022-12-07T09:17:06;18.80;65.80
60287;DHT22;46141;52.382;5.270;2022-12-07T09:19:32;18.80;65.60
60287;DHT22;46141;52.382;5.270;2022-12-07T09:21:59;18.80;65.50
60287;DHT22;46141;52.382;5.270;2022-12-07T09:24:24;18.90;65.50
60287;DHT22;46141;52.382;5.270;2022-12-07T09:26:50;18.90;65.40
60287;DHT22;46141;52.382;5.270;2022-12-07T09:29:15;19.00;65.70
60287;DHT22;46141;52.382;5.270;2022-12-07T09:31:41;19.00;65.40
60287;DHT22;46141;52.382;5.270;2022-12-07T09:34:07;19.10;65.40
60287;DHT22;46141;52.382;5.270;2022-12-07T09:36:34;19.10;65.20
60287;DHT22;46141;52.382;5.270;2022-12-07T09:38:59;19.20;64.90
60287;DHT22;46141;52.382;5.270;2022-12-07T09:41:27;19.30;64.90
60287;DHT22;46141;52.382;5.270;2022-12-07T09:44:06;19.30;64.70
60287;DHT22;46141;52.382;5.270;2022-12-07T09:46:40;19.40;64.40
60287;DHT22;46141;52.382;5.270;2022-12-07T09:49:20;19.50;64.20
60287;DHT22;46141;52.382;5.270;2022-12-07T09:51:47;19.50;63.90
60287;DHT22;46141;52.382;5.270;2022-12-07T09:54:16;19.60;64.20
60287;DHT22;46141;52.382;5.270;2022-12-07T09:56:43;19.60;64.80
60287;DHT22;46141;52.382;5.270;2022-12-07T09:59:17;19.70;64.20
60287;DHT22;46141;52.382;5.270;2022-12-07T10:01:47;19.70;64.30
60287;DHT22;46141;52.382;5.270;2022-12-07T10:04:20;19.70;64.10
60287;DHT22;46141;52.382;5.270;2022-12-07T10:06:49;19.80;63.70
60287;DHT22;46141;52.382;5.270;2022-12-07T10:09:19;19.90;63.50
60287;DHT22;46141;52.382;5.270;2022-12-07T10:12:01;19.90;63.30
60287;DHT22;46141;52.382;5.270;2022-12-07T10:14:29;20.00;63.20
60287;DHT22;46141;52.382;5.270;2022-12-07T10:16:56;20.10;63.50
60287;DHT22;46141;52.382;5.270;2022-12-07T10:19:28;20.10;63.50
60287;DHT22;46141;52.382;5.270;2022-12-07T10:24:27;20.20;62.60
60287;DHT22;46141;52.382;5.270;2022-12-07T10:26:53;20.30;62.60
60287;DHT22;46141;52.382;5.270;2022-12-07T10:29:29;20.30;62.60
60287;DHT22;46141;52.382;5.270;2022-12-07T10:34:34;20.30;62.20
60287;DHT22;46141;52.382;5.270;2022-12-07T10:37:27;20.30;62.30
60287;DHT22;46141;52.382;5.270;2022-12-07T10:39:57;20.30;62.60
60287;DHT22;46141;52.382;5.270;2022-12-07T10:42:28;20.40;62.80
60287;DHT22;46141;52.382;5.270;2022-12-07T10:48:14;20.40;63.10
60287;DHT22;46141;52.382;5.270;2022-12-07T10:53:47;20.40;62.90
60287;DHT22;46141;52.382;5.270;2022-12-07T11:08:13;20.40;63.10
60287;DHT22;46141;52.382;5.270;2022-12-07T11:13:30;20.40;61.30
60287;DHT22;46141;52.382;5.270;2022-12-07T11:16:13;20.40;60.40
60287;DHT22;46141;52.382;5.270;2022-12-07T11:22:03;20.40;62.30
60287;DHT22;46141;52.382;5.270;2022-12-07T11:24:41;20.40;62.60
60287;DHT22;46141;52.382;5.270;2022-12-07T11:27:37;20.40;62.50
60287;DHT22;46141;52.382;5.270;2022-12-07T11:32:41;20.40;62.60
60287;DHT22;46141;52.382;5.270;2022-12-07T11:38:03;20.40;62.90
60287;DHT22;46141;52.382;5.270;2022-12-07T11:40:36;20.40;63.10
60287;DHT22;46141;52.382;5.270;2022-12-07T11:43:15;20.40;63.00
60287;DHT22;46141;52.382;5.270;2022-12-07T11:45:47;20.50;63.00
60287;DHT22;46141;52.382;5.270;2022-12-07T11:48:35;20.50;63.10
60287;DHT22;46141;52.382;5.270;2022-12-07T11:51:09;20.40;63.20
60287;DHT22;46141;52.382;5.270;2022-12-07T11:53:54;20.50;63.20
60287;DHT22;46141;52.382;5.270;2022-12-07T11:56:26;20.50;63.00
60287;DHT22;46141;52.382;5.270;2022-12-07T11:59:06;20.50;63.30
60287;DHT22;46141;52.382;5.270;2022-12-07T12:04:23;20.50;63.10
60287;DHT22;46141;52.382;5.270;2022-12-07T12:06:51;20.50;63.20
60287;DHT22;46141;52.382;5.270;2022-12-07T12:09:35;20.50;63.40
60287;DHT22;46141;52.382;5.270;2022-12-07T12:18:05;20.50;63.60
60287;DHT22;46141;52.382;5.270;2022-12-07T12:20:45;20.50;63.80
60287;DHT22;46141;52.382;5.270;2022-12-07T12:26:32;20.50;63.20
60287;DHT22;46141;52.382;5.270;2022-12-07T12:29:13;20.50;63.20
60287;DHT22;46141;52.382;5.270;2022-12-07T12:32:23;20.50;63.10
60287;DHT22;46141;52.382;5.270;2022-12-07T12:35:01;20.50;62.80
60287;DHT22;46141;52.382;5.270;2022-12-07T12:42:50;20.40;62.40
60287;DHT22;46141;52.382;5.270;2022-12-07T12:45:35;20.40;62.60
60287;DHT22;46141;52.382;5.270;2022-12-07T12:48:44;20.40;62.80
60287;DHT22;46141;52.382;5.270;2022-12-07T12:54:04;20.50;63.80
60287;DHT22;46141;52.382;5.270;2022-12-07T12:59:32;20.50;64.30
60287;DHT22;46141;52.382;5.270;2022-12-07T13:05:02;20.50;64.40
60287;DHT22;46141;52.382;5.270;2022-12-07T13:15:41;20.50;64.60
60287;DHT22;46141;52.382;5.270;2022-12-07T13:24:00;20.50;64.50
60287;DHT22;46141;52.382;5.270;2022-12-07T13:34:41;20.60;64.30
60287;DHT22;46141;52.382;5.270;2022-12-07T13:37:27;20.60;64.30
60287;DHT22;46141;52.382;5.270;2022-12-07T13:39:56;20.60;64.30
60287;DHT22;46141;52.382;5.270;2022-12-07T13:42:32;20.60;64.30
60287;DHT22;46141;52.382;5.270;2022-12-07T13:45:01;20.70;64.30
60287;DHT22;46141;52.382;5.270;2022-12-07T13:47:49;20.70;64.10
60287;DHT22;46141;52.382;5.270;2022-12-07T13:50:26;20.70;64.20
60287;DHT22;46141;52.382;5.270;2022-12-07T13:52:56;20.70;64.20
60287;DHT22;46141;52.382;5.270;2022-12-07T13:55:22;20.70;64.10
60287;DHT22;46141;52.382;5.270;2022-12-07T13:57:51;20.80;64.00
60287;DHT22;46141;52.382;5.270;2022-12-07T14:00:26;20.70;64.20
60287;DHT22;46141;52.382;5.270;2022-12-07T14:05:40;20.80;64.20
60287;DHT22;46141;52.382;5.270;2022-12-07T14:10:36;20.80;64.10
60287;DHT22;46141;52.382;5.270;2022-12-07T14:13:28;20.80;64.00
60287;DHT22;46141;52.382;5.270;2022-12-07T14:15:55;20.80;64.20
60287;DHT22;46141;52.382;5.270;2022-12-07T14:18:39;20.80;64.00
60287;DHT22;46141;52.382;5.270;2022-12-07T14:21:14;20.80;64.00
60287;DHT22;46141;52.382;5.270;2022-12-07T14:23:42;20.80;63.90
60287;DHT22;46141;52.382;5.270;2022-12-07T14:28:40;20.80;64.10
60287;DHT22;46141;52.382;5.270;2022-12-07T14:31:18;20.80;64.20
60287;DHT22;46141;52.382;5.270;2022-12-07T14:33:47;20.80;64.00
60287;DHT22;46141;52.382;5.270;2022-12-07T14:36:14;20.80;63.90
60287;DHT22;46141;52.382;5.270;2022-12-07T14:38:40;20.80;63.80
60287;DHT22;46141;52.382;5.270;2022-12-07T14:41:14;20.80;63.80
60287;DHT22;46141;52.382;5.270;2022-12-07T14:44:00;20.80;64.10
60287;DHT22;46141;52.382;5.270;2022-12-07T14:46:26;20.80;63.80
60287;DHT22;46141;52.382;5.270;2022-12-07T14:48:51;20.80;64.00
60287;DHT22;46141;52.382;5.270;2022-12-07T14:51:17;20.80;64.00
60287;DHT22;46141;52.382;5.270;2022-12-07T14:53:48;20.80;64.10
60287;DHT22;46141;52.382;5.270;2022-12-07T14:56:14;20.80;64.10
60287;DHT22;46141;52.382;5.270;2022-12-07T14:58:40;20.80;64.40
60287;DHT22;46141;52.382;5.270;2022-12-07T15:01:06;20.80;64.10
60287;DHT22;46141;52.382;5.270;2022-12-07T15:03:32;20.80;64.10
60287;DHT22;46141;52.382;5.270;2022-12-07T15:06:00;20.80;63.90
60287;DHT22;46141;52.382;5.270;2022-12-07T15:08:26;20.80;63.80
60287;DHT22;46141;52.382;5.270;2022-12-07T15:10:52;20.80;64.00
60287;DHT22;46141;52.382;5.270;2022-12-07T15:13:18;20.80;64.10
60287;DHT22;46141;52.382;5.270;2022-12-07T15:16:02;20.80;64.00
60287;DHT22;46141;52.382;5.270;2022-12-07T15:18:28;20.80;64.10
60287;DHT22;46141;52.382;5.270;2022-12-07T15:20:54;20.80;63.90
60287;DHT22;46141;52.382;5.270;2022-12-07T15:23:19;20.90;63.70
60287;DHT22;46141;52.382;5.270;2022-12-07T15:25:47;20.80;63.50
60287;DHT22;46141;52.382;5.270;2022-12-07T15:28:14;20.80;63.70
60287;DHT22;46141;52.382;5.270;2022-12-07T15:30:43;20.80;63.90
60287;DHT22;46141;52.382;5.270;2022-12-07T15:33:11;20.80;64.20
60287;DHT22;46141;52.382;5.270;2022-12-07T15:35:41;20.80;64.10
60287;DHT22;46141;52.382;5.270;2022-12-07T15:38:07;20.80;64.10
60287;DHT22;46141;52.382;5.270;2022-12-07T15:40:34;20.80;63.80
60287;DHT22;46141;52.382;5.270;2022-12-07T15:43:00;20.80;64.00
60287;DHT22;46141;52.382;5.270;2022-12-07T15:45:26;20.80;63.80
60287;DHT22;46141;52.382;5.270;2022-12-07T15:47:52;20.80;63.80
60287;DHT22;46141;52.382;5.270;2022-12-07T15:50:20;20.80;63.80
60287;DHT22;46141;52.382;5.270;2022-12-07T15:52:45;20.80;63.50
60287;DHT22;46141;52.382;5.270;2022-12-07T15:55:11;20.80;63.80
60287;DHT22;46141;52.382;5.270;2022-12-07T15:57:38;20.80;64.00
60287;DHT22;46141;52.382;5.270;2022-12-07T16:00:05;20.80;64.10
60287;DHT22;46141;52.382;5.270;2022-12-07T16:02:31;20.80;64.00
60287;DHT22;46141;52.382;5.270;2022-12-07T16:04:56;20.80;63.80
60287;DHT22;46141;52.382;5.270;2022-12-07T16:07:22;20.80;63.90
60287;DHT22;46141;52.382;5.270;2022-12-07T16:09:48;20.80;64.00
60287;DHT22;46141;52.382;5.270;2022-12-07T16:12:17;20.80;63.80
60287;DHT22;46141;52.382;5.270;2022-12-07T16:14:43;20.80;63.80
60287;DHT22;46141;52.382;5.270;2022-12-07T16:17:10;20.80;63.60
60287;DHT22;46141;52.382;5.270;2022-12-07T16:19:36;20.80;63.60
60287;DHT22;46141;52.382;5.270;2022-12-07T16:22:04;20.80;63.50
60287;DHT22;46141;52.382;5.270;2022-12-07T16:24:31;20.90;63.60
60287;DHT22;46141;52.382;5.270;2022-12-07T16:26:56;20.80;63.80
60287;DHT22;46141;52.382;5.270;2022-12-07T16:29:23;20.80;63.90
60287;DHT22;46141;52.382;5.270;2022-12-07T16:31:50;20.80;63.80
60287;DHT22;46141;52.382;5.270;2022-12-07T16:34:17;20.80;63.50
60287;DHT22;46141;52.382;5.270;2022-12-07T16:36:43;20.90;63.40
60287;DHT22;46141;52.382;5.270;2022-12-07T16:39:09;20.90;63.60
60287;DHT22;46141;52.382;5.270;2022-12-07T16:41:35;20.90;63.40
60287;DHT22;46141;52.382;5.270;2022-12-07T16:44:06;20.80;63.80
60287;DHT22;46141;52.382;5.270;2022-12-07T16:46:33;20.80;63.60
60287;DHT22;46141;52.382;5.270;2022-12-07T16:48:59;20.80;63.90
60287;DHT22;46141;52.382;5.270;2022-12-07T16:51:25;20.80;63.80
60287;DHT22;46141;52.382;5.270;2022-12-07T16:53:52;20.80;62.80
60287;DHT22;46141;52.382;5.270;2022-12-07T16:56:18;20.80;63.70
60287;DHT22;46141;52.382;5.270;2022-12-07T16:58:44;20.90;63.80
60287;DHT22;46141;52.382;5.270;2022-12-07T17:01:19;20.80;63.30
60287;DHT22;46141;52.382;5.270;2022-12-07T17:03:47;20.80;64.40
60287;DHT22;46141;52.382;5.270;2022-12-07T17:06:18;20.80;63.70
60287;DHT22;46141;52.382;5.270;2022-12-07T17:08:44;20.90;63.70
60287;DHT22;46141;52.382;5.270;2022-12-07T17:11:16;21.10;63.50
60287;DHT22;46141;52.382;5.270;2022-12-07T17:13:42;21.10;63.50
60287;DHT22;46141;52.382;5.270;2022-12-07T17:16:28;21.10;63.70
60287;DHT22;46141;52.382;5.270;2022-12-07T17:18:54;21.10;64.10
60287;DHT22;46141;52.382;5.270;2022-12-07T17:21:20;21.00;64.40
60287;DHT22;46141;52.382;5.270;2022-12-07T17:23:46;21.00;64.70
60287;DHT22;46141;52.382;5.270;2022-12-07T17:26:20;21.00;64.90
60287;DHT22;46141;52.382;5.270;2022-12-07T17:28:46;21.00;65.80
60287;DHT22;46141;52.382;5.270;2022-12-07T17:31:14;21.00;65.20
60287;DHT22;46141;52.382;5.270;2022-12-07T17:33:41;21.00;65.20
60287;DHT22;46141;52.382;5.270;2022-12-07T17:36:19;21.00;64.70
60287;DHT22;46141;52.382;5.270;2022-12-07T17:38:45;21.00;65.00
60287;DHT22;46141;52.382;5.270;2022-12-07T17:41:14;21.10;65.10
60287;DHT22;46141;52.382;5.270;2022-12-07T17:43:58;21.00;65.00